sensor_id;sensor_type;location;lat;lon;timestamp;P1;durP1;ratioP1;P2;durP2;ratioP2
14592;SDS011;7383;52.354;9.756;2023-08-08T00:00:12;1.80;;;1.70;;
14592;SDS011;7383;52.354;9.756;2023-08-08T00:02:39;2.47;;;1.88;;
14592;SDS011;7383;52.354;9.756;2023-08-08T00:05:06;1.60;;;1.50;;
14592;SDS011;7383;52.354;9.756;2023-08-08T00:07:33;1.70;;;1.60;;
14592;SDS011;7383;52.354;9.756;2023-08-08T00:10:01;1.70;;;1.50;;
14592;SDS011;7383;52.354;9.756;2023-08-08T00:12:28;2.10;;;1.83;;
14592;SDS011;7383;52.354;9.756;2023-08-08T00:14:55;2.78;;;1.77;;
14592;SDS011;7383;52.354;9.756;2023-08-08T00:17:21;1.95;;;1.85;;
14592;SDS011;7383;52.354;9.756;2023-08-08T00:19:48;1.70;;;1.50;;
14592;SDS011;7383;52.354;9.756;2023-08-08T00:22:14;2.08;;;1.98;;
14592;SDS011;7383;52.354;9.756;2023-08-08T00:24:41;1.70;;;1.60;;
14592;SDS011;7383;52.354;9.756;2023-08-08T00:27:09;1.80;;;1.70;;
14592;SDS011;7383;52.354;9.756;2023-08-08T00:29:35;1.35;;;1.25;;
14592;SDS011;7383;52.354;9.756;2023-08-08T00:32:02;1.60;;;1.50;;
14592;SDS011;7383;52.354;9.756;2023-08-08T00:34:29;1.38;;;1.38;;
14592;SDS011;7383;52.354;9.756;2023-08-08T00:36:55;1.40;;;1.30;;
14592;SDS011;7383;52.354;9.756;2023-08-08T00:39:22;1.52;;;1.42;;
14592;SDS011;7383;52.354;9.756;2023-08-08T00:41:48;1.58;;;1.50;;
14592;SDS011;7383;52.354;9.756;2023-08-08T00:44:16;1.50;;;1.40;;
14592;SDS011;7383;52.354;9.756;2023-08-08T00:46:43;1.77;;;1.67;;
14592;SDS011;7383;52.354;9.756;2023-08-08T00:49:09;2.15;;;1.50;;
14592;SDS011;7383;52.354;9.756;2023-08-08T00:51:36;1.92;;;1.77;;
14592;SDS011;7383;52.354;9.756;2023-08-08T00:54:02;1.50;;;1.42;;
14592;SDS011;7383;52.354;9.756;2023-08-08T00:56:30;1.70;;;1.60;;
14592;SDS011;7383;52.354;9.756;2023-08-08T00:59:00;1.88;;;1.65;;
14592;SDS011;7383;52.354;9.756;2023-08-08T01:01:29;1.85;;;1.75;;
14592;SDS011;7383;52.354;9.756;2023-08-08T01:03:55;1.70;;;1.60;;
14592;SDS011;7383;52.354;9.756;2023-08-08T01:06:24;1.85;;;1.52;;
14592;SDS011;7383;52.354;9.756;2023-08-08T01:08:58;2.30;;;1.65;;
14592;SDS011;7383;52.354;9.756;2023-08-08T01:11:29;1.40;;;1.30;;
14592;SDS011;7383;52.354;9.756;2023-08-08T01:13:58;1.85;;;1.58;;
14592;SDS011;7383;52.354;9.756;2023-08-08T01:16:25;1.27;;;1.20;;
14592;SDS011;7383;52.354;9.756;2023-08-08T01:18:54;1.40;;;1.30;;
14592;SDS011;7383;52.354;9.756;2023-08-08T01:21:22;1.48;;;1.38;;
14592;SDS011;7383;52.354;9.756;2023-08-08T01:23:52;2.05;;;1.42;;
14592;SDS011;7383;52.354;9.756;2023-08-08T01:26:23;1.90;;;1.38;;
14592;SDS011;7383;52.354;9.756;2023-08-08T01:28:52;1.77;;;1.60;;
14592;SDS011;7383;52.354;9.756;2023-08-08T01:31:19;1.50;;;1.40;;
14592;SDS011;7383;52.354;9.756;2023-08-08T01:33:46;1.80;;;1.70;;
14592;SDS011;7383;52.354;9.756;2023-08-08T01:36:13;1.83;;;1.70;;
14592;SDS011;7383;52.354;9.756;2023-08-08T01:38:46;1.40;;;1.30;;
14592;SDS011;7383;52.354;9.756;2023-08-08T01:41:15;1.90;;;1.50;;
14592;SDS011;7383;52.354;9.756;2023-08-08T01:43:45;1.60;;;1.50;;
14592;SDS011;7383;52.354;9.756;2023-08-08T01:46:12;1.35;;;1.25;;
14592;SDS011;7383;52.354;9.756;2023-08-08T01:48:38;1.60;;;1.50;;
14592;SDS011;7383;52.354;9.756;2023-08-08T01:51:07;1.48;;;1.10;;
14592;SDS011;7383;52.354;9.756;2023-08-08T01:53:34;1.70;;;1.60;;
14592;SDS011;7383;52.354;9.756;2023-08-08T01:56:00;1.67;;;1.58;;
14592;SDS011;7383;52.354;9.756;2023-08-08T01:58:28;1.50;;;1.40;;
14592;SDS011;7383;52.354;9.756;2023-08-08T02:00:55;1.40;;;1.30;;
14592;SDS011;7383;52.354;9.756;2023-08-08T02:03:22;1.30;;;1.30;;
14592;SDS011;7383;52.354;9.756;2023-08-08T02:05:49;1.25;;;1.25;;
14592;SDS011;7383;52.354;9.756;2023-08-08T02:08:15;2.17;;;1.73;;
14592;SDS011;7383;52.354;9.756;2023-08-08T02:10:43;1.90;;;1.80;;
14592;SDS011;7383;52.354;9.756;2023-08-08T02:13:09;1.70;;;1.60;;
14592;SDS011;7383;52.354;9.756;2023-08-08T02:15:36;1.50;;;1.40;;
14592;SDS011;7383;52.354;9.756;2023-08-08T02:18:04;1.80;;;1.40;;
14592;SDS011;7383;52.354;9.756;2023-08-08T02:20:32;1.60;;;1.50;;
14592;SDS011;7383;52.354;9.756;2023-08-08T02:22:59;1.58;;;1.48;;
14592;SDS011;7383;52.354;9.756;2023-08-08T02:25:25;1.90;;;1.80;;
14592;SDS011;7383;52.354;9.756;2023-08-08T02:27:52;1.70;;;1.60;;
14592;SDS011;7383;52.354;9.756;2023-08-08T02:30:19;1.75;;;1.65;;
14592;SDS011;7383;52.354;9.756;2023-08-08T02:32:45;1.90;;;1.80;;
14592;SDS011;7383;52.354;9.756;2023-08-08T02:35:13;1.73;;;1.63;;
14592;SDS011;7383;52.354;9.756;2023-08-08T02:37:40;1.77;;;1.67;;
14592;SDS011;7383;52.354;9.756;2023-08-08T02:40:06;2.78;;;2.03;;
14592;SDS011;7383;52.354;9.756;2023-08-08T02:42:34;1.83;;;1.73;;
14592;SDS011;7383;52.354;9.756;2023-08-08T02:45:01;2.40;;;1.98;;
14592;SDS011;7383;52.354;9.756;2023-08-08T02:47:27;2.00;;;1.90;;
14592;SDS011;7383;52.354;9.756;2023-08-08T02:49:54;1.77;;;1.67;;
14592;SDS011;7383;52.354;9.756;2023-08-08T02:52:22;1.65;;;1.55;;
14592;SDS011;7383;52.354;9.756;2023-08-08T02:54:48;1.88;;;1.77;;
14592;SDS011;7383;52.354;9.756;2023-08-08T02:57:15;2.03;;;1.92;;
14592;SDS011;7383;52.354;9.756;2023-08-08T02:59:41;1.92;;;1.83;;
14592;SDS011;7383;52.354;9.756;2023-08-08T03:02:08;2.58;;;2.05;;
14592;SDS011;7383;52.354;9.756;2023-08-08T03:04:35;2.20;;;2.00;;
14592;SDS011;7383;52.354;9.756;2023-08-08T03:07:01;2.00;;;1.90;;
14592;SDS011;7383;52.354;9.756;2023-08-08T03:09:30;2.47;;;2.28;;
14592;SDS011;7383;52.354;9.756;2023-08-08T03:11:57;1.85;;;1.73;;
14592;SDS011;7383;52.354;9.756;2023-08-08T03:14:23;2.22;;;2.10;;
14592;SDS011;7383;52.354;9.756;2023-08-08T03:16:49;1.98;;;1.88;;
14592;SDS011;7383;52.354;9.756;2023-08-08T03:19:16;2.20;;;2.10;;
14592;SDS011;7383;52.354;9.756;2023-08-08T03:21:42;2.15;;;1.80;;
14592;SDS011;7383;52.354;9.756;2023-08-08T03:24:09;2.08;;;1.98;;
14592;SDS011;7383;52.354;9.756;2023-08-08T03:26:37;1.88;;;1.77;;
14592;SDS011;7383;52.354;9.756;2023-08-08T03:29:04;2.40;;;2.20;;
14592;SDS011;7383;52.354;9.756;2023-08-08T03:31:34;2.53;;;1.90;;
14592;SDS011;7383;52.354;9.756;2023-08-08T03:34:01;2.30;;;2.10;;
14592;SDS011;7383;52.354;9.756;2023-08-08T03:36:28;2.00;;;1.90;;
14592;SDS011;7383;52.354;9.756;2023-08-08T03:38:54;2.03;;;1.92;;
14592;SDS011;7383;52.354;9.756;2023-08-08T03:41:20;2.00;;;1.90;;
14592;SDS011;7383;52.354;9.756;2023-08-08T03:43:48;2.35;;;2.15;;
14592;SDS011;7383;52.354;9.756;2023-08-08T03:46:15;2.00;;;1.90;;
14592;SDS011;7383;52.354;9.756;2023-08-08T03:48:41;2.30;;;2.10;;
14592;SDS011;7383;52.354;9.756;2023-08-08T03:51:08;2.00;;;1.90;;
14592;SDS011;7383;52.354;9.756;2023-08-08T03:53:34;2.00;;;1.90;;
14592;SDS011;7383;52.354;9.756;2023-08-08T03:56:01;2.60;;;2.40;;
14592;SDS011;7383;52.354;9.756;2023-08-08T03:58:27;3.85;;;2.33;;
14592;SDS011;7383;52.354;9.756;2023-08-08T04:00:55;2.17;;;2.08;;
14592;SDS011;7383;52.354;9.756;2023-08-08T04:03:22;2.88;;;2.13;;
14592;SDS011;7383;52.354;9.756;2023-08-08T04:05:48;2.20;;;2.00;;
14592;SDS011;7383;52.354;9.756;2023-08-08T04:08:15;2.40;;;2.00;;
14592;SDS011;7383;52.354;9.756;2023-08-08T04:10:42;2.10;;;2.00;;
14592;SDS011;7383;52.354;9.756;2023-08-08T04:13:09;2.08;;;1.80;;
14592;SDS011;7383;52.354;9.756;2023-08-08T04:15:35;1.92;;;1.83;;
14592;SDS011;7383;52.354;9.756;2023-08-08T04:18:04;1.80;;;1.70;;
14592;SDS011;7383;52.354;9.756;2023-08-08T04:20:31;1.85;;;1.75;;
14592;SDS011;7383;52.354;9.756;2023-08-08T04:22:58;1.88;;;1.75;;
14592;SDS011;7383;52.354;9.756;2023-08-08T04:25:25;1.80;;;1.70;;
14592;SDS011;7383;52.354;9.756;2023-08-08T04:27:51;1.98;;;1.88;;
14592;SDS011;7383;52.354;9.756;2023-08-08T04:30:18;1.95;;;1.80;;
14592;SDS011;7383;52.354;9.756;2023-08-08T04:32:45;1.77;;;1.67;;
14592;SDS011;7383;52.354;9.756;2023-08-08T04:35:13;2.15;;;2.05;;
14592;SDS011;7383;52.354;9.756;2023-08-08T04:37:39;1.80;;;1.70;;
14592;SDS011;7383;52.354;9.756;2023-08-08T04:40:07;2.17;;;1.98;;
14592;SDS011;7383;52.354;9.756;2023-08-08T04:42:35;2.05;;;1.95;;
14592;SDS011;7383;52.354;9.756;2023-08-08T04:45:01;2.10;;;2.00;;
14592;SDS011;7383;52.354;9.756;2023-08-08T04:47:28;2.20;;;2.00;;
14592;SDS011;7383;52.354;9.756;2023-08-08T04:49:54;1.80;;;1.70;;
14592;SDS011;7383;52.354;9.756;2023-08-08T04:52:22;1.80;;;1.70;;
14592;SDS011;7383;52.354;9.756;2023-08-08T04:54:48;2.30;;;2.10;;
14592;SDS011;7383;52.354;9.756;2023-08-08T04:57:15;2.30;;;2.10;;
14592;SDS011;7383;52.354;9.756;2023-08-08T04:59:41;1.80;;;1.70;;
14592;SDS011;7383;52.354;9.756;2023-08-08T05:02:08;1.73;;;1.67;;
14592;SDS011;7383;52.354;9.756;2023-08-08T05:04:35;1.80;;;1.70;;
14592;SDS011;7383;52.354;9.756;2023-08-08T05:07:02;2.00;;;1.90;;
14592;SDS011;7383;52.354;9.756;2023-08-08T05:09:30;2.38;;;1.92;;
14592;SDS011;7383;52.354;9.756;2023-08-08T05:11:56;2.05;;;1.95;;
14592;SDS011;7383;52.354;9.756;2023-08-08T05:14:23;2.22;;;2.03;;
14592;SDS011;7383;52.354;9.756;2023-08-08T05:16:49;2.55;;;2.00;;
14592;SDS011;7383;52.354;9.756;2023-08-08T05:19:16;2.28;;;2.08;;
14592;SDS011;7383;52.354;9.756;2023-08-08T05:21:42;1.92;;;1.83;;
14592;SDS011;7383;52.354;9.756;2023-08-08T05:24:08;1.98;;;1.83;;
14592;SDS011;7383;52.354;9.756;2023-08-08T05:26:36;2.00;;;1.90;;
14592;SDS011;7383;52.354;9.756;2023-08-08T05:29:03;2.13;;;1.92;;
14592;SDS011;7383;52.354;9.756;2023-08-08T05:31:29;2.10;;;2.00;;
14592;SDS011;7383;52.354;9.756;2023-08-08T05:33:56;2.15;;;2.00;;
14592;SDS011;7383;52.354;9.756;2023-08-08T05:36:22;3.22;;;2.10;;
14592;SDS011;7383;52.354;9.756;2023-08-08T05:38:49;2.33;;;1.92;;
14592;SDS011;7383;52.354;9.756;2023-08-08T05:41:15;2.58;;;2.38;;
14592;SDS011;7383;52.354;9.756;2023-08-08T05:43:43;2.33;;;1.90;;
14592;SDS011;7383;52.354;9.756;2023-08-08T05:46:12;2.20;;;2.10;;
14592;SDS011;7383;52.354;9.756;2023-08-08T05:48:38;2.08;;;1.98;;
14592;SDS011;7383;52.354;9.756;2023-08-08T05:51:05;3.08;;;2.40;;
14592;SDS011;7383;52.354;9.756;2023-08-08T05:53:31;2.22;;;2.03;;
14592;SDS011;7383;52.354;9.756;2023-08-08T05:55:58;2.33;;;2.13;;
14592;SDS011;7383;52.354;9.756;2023-08-08T05:58:24;2.42;;;2.17;;
14592;SDS011;7383;52.354;9.756;2023-08-08T06:00:52;2.10;;;1.90;;
14592;SDS011;7383;52.354;9.756;2023-08-08T06:03:19;1.73;;;1.63;;
14592;SDS011;7383;52.354;9.756;2023-08-08T06:05:45;2.17;;;2.08;;
14592;SDS011;7383;52.354;9.756;2023-08-08T06:08:12;3.42;;;2.30;;
14592;SDS011;7383;52.354;9.756;2023-08-08T06:10:41;2.40;;;2.20;;
14592;SDS011;7383;52.354;9.756;2023-08-08T06:13:07;2.40;;;2.20;;
14592;SDS011;7383;52.354;9.756;2023-08-08T06:15:34;3.30;;;2.70;;
14592;SDS011;7383;52.354;9.756;2023-08-08T06:18:02;2.22;;;2.00;;
14592;SDS011;7383;52.354;9.756;2023-08-08T06:20:28;2.08;;;1.98;;
14592;SDS011;7383;52.354;9.756;2023-08-08T06:22:55;2.20;;;2.10;;
14592;SDS011;7383;52.354;9.756;2023-08-08T06:25:21;3.50;;;2.70;;
14592;SDS011;7383;52.354;9.756;2023-08-08T06:27:48;2.47;;;2.20;;
14592;SDS011;7383;52.354;9.756;2023-08-08T06:30:15;2.30;;;2.10;;
14592;SDS011;7383;52.354;9.756;2023-08-08T06:32:41;2.45;;;2.25;;
14592;SDS011;7383;52.354;9.756;2023-08-08T06:35:10;2.83;;;2.45;;
14592;SDS011;7383;52.354;9.756;2023-08-08T06:37:36;2.85;;;2.28;;
14592;SDS011;7383;52.354;9.756;2023-08-08T06:40:03;2.60;;;2.40;;
14592;SDS011;7383;52.354;9.756;2023-08-08T06:42:32;2.85;;;2.60;;
14592;SDS011;7383;52.354;9.756;2023-08-08T06:44:58;2.45;;;2.33;;
14592;SDS011;7383;52.354;9.756;2023-08-08T06:47:25;2.78;;;2.55;;
14592;SDS011;7383;52.354;9.756;2023-08-08T06:49:51;2.72;;;2.53;;
14592;SDS011;7383;52.354;9.756;2023-08-08T06:52:19;3.47;;;3.17;;
14592;SDS011;7383;52.354;9.756;2023-08-08T06:54:47;3.13;;;2.83;;
14592;SDS011;7383;52.354;9.756;2023-08-08T06:57:13;2.42;;;2.22;;
14592;SDS011;7383;52.354;9.756;2023-08-08T06:59:40;2.70;;;2.50;;
14592;SDS011;7383;52.354;9.756;2023-08-08T07:02:06;2.47;;;2.30;;
14592;SDS011;7383;52.354;9.756;2023-08-08T07:04:33;4.93;;;2.08;;
14592;SDS011;7383;52.354;9.756;2023-08-08T07:07:01;2.22;;;2.10;;
14592;SDS011;7383;52.354;9.756;2023-08-08T07:09:29;2.40;;;2.20;;
14592;SDS011;7383;52.354;9.756;2023-08-08T07:11:55;3.30;;;1.83;;
14592;SDS011;7383;52.354;9.756;2023-08-08T07:14:22;2.30;;;2.10;;
14592;SDS011;7383;52.354;9.756;2023-08-08T07:16:48;2.00;;;1.90;;
14592;SDS011;7383;52.354;9.756;2023-08-08T07:19:15;2.33;;;2.10;;
14592;SDS011;7383;52.354;9.756;2023-08-08T07:21:41;2.20;;;2.00;;
14592;SDS011;7383;52.354;9.756;2023-08-08T07:24:08;1.92;;;1.83;;
14592;SDS011;7383;52.354;9.756;2023-08-08T07:26:36;2.20;;;1.95;;
14592;SDS011;7383;52.354;9.756;2023-08-08T07:29:02;3.00;;;2.00;;
14592;SDS011;7383;52.354;9.756;2023-08-08T07:31:31;2.70;;;2.00;;
14592;SDS011;7383;52.354;9.756;2023-08-08T07:33:57;2.13;;;2.03;;
14592;SDS011;7383;52.354;9.756;2023-08-08T07:36:24;2.40;;;2.20;;
14592;SDS011;7383;52.354;9.756;2023-08-08T07:38:50;2.17;;;2.08;;
14592;SDS011;7383;52.354;9.756;2023-08-08T07:41:17;2.63;;;2.42;;
14592;SDS011;7383;52.354;9.756;2023-08-08T07:43:45;1.70;;;1.60;;
14592;SDS011;7383;52.354;9.756;2023-08-08T07:46:12;2.03;;;1.52;;
14592;SDS011;7383;52.354;9.756;2023-08-08T07:48:39;2.67;;;1.90;;
14592;SDS011;7383;52.354;9.756;2023-08-08T07:51:05;2.17;;;1.98;;
14592;SDS011;7383;52.354;9.756;2023-08-08T07:53:32;1.80;;;1.70;;
14592;SDS011;7383;52.354;9.756;2023-08-08T07:55:58;2.50;;;1.65;;
14592;SDS011;7383;52.354;9.756;2023-08-08T07:58:25;2.85;;;1.80;;
14592;SDS011;7383;52.354;9.756;2023-08-08T08:00:54;1.70;;;1.60;;
14592;SDS011;7383;52.354;9.756;2023-08-08T08:03:20;2.00;;;1.83;;
14592;SDS011;7383;52.354;9.756;2023-08-08T08:05:48;1.83;;;1.40;;
14592;SDS011;7383;52.354;9.756;2023-08-08T08:08:15;2.15;;;1.67;;
14592;SDS011;7383;52.354;9.756;2023-08-08T08:10:41;1.52;;;1.42;;
14592;SDS011;7383;52.354;9.756;2023-08-08T08:13:08;2.35;;;1.52;;
14592;SDS011;7383;52.354;9.756;2023-08-08T08:15:37;1.50;;;1.40;;
14592;SDS011;7383;52.354;9.756;2023-08-08T08:18:05;2.00;;;1.48;;
14592;SDS011;7383;52.354;9.756;2023-08-08T08:20:31;1.50;;;1.40;;
14592;SDS011;7383;52.354;9.756;2023-08-08T08:22:59;1.55;;;1.45;;
14592;SDS011;7383;52.354;9.756;2023-08-08T08:25:25;1.70;;;1.60;;
14592;SDS011;7383;52.354;9.756;2023-08-08T08:27:52;1.58;;;1.48;;
14592;SDS011;7383;52.354;9.756;2023-08-08T08:30:18;1.85;;;1.50;;
14592;SDS011;7383;52.354;9.756;2023-08-08T08:32:45;1.63;;;1.45;;
14592;SDS011;7383;52.354;9.756;2023-08-08T08:35:13;1.98;;;1.60;;
14592;SDS011;7383;52.354;9.756;2023-08-08T08:37:39;1.55;;;1.30;;
14592;SDS011;7383;52.354;9.756;2023-08-08T08:40:06;1.58;;;1.48;;
14592;SDS011;7383;52.354;9.756;2023-08-08T08:42:34;1.73;;;1.63;;
14592;SDS011;7383;52.354;9.756;2023-08-08T08:45:01;1.27;;;1.17;;
14592;SDS011;7383;52.354;9.756;2023-08-08T08:47:30;1.60;;;1.42;;
14592;SDS011;7383;52.354;9.756;2023-08-08T08:49:57;1.25;;;1.20;;
14592;SDS011;7383;52.354;9.756;2023-08-08T08:52:27;2.63;;;1.50;;
14592;SDS011;7383;52.354;9.756;2023-08-08T08:54:54;1.45;;;1.35;;
14592;SDS011;7383;52.354;9.756;2023-08-08T08:57:21;2.33;;;2.00;;
14592;SDS011;7383;52.354;9.756;2023-08-08T08:59:48;2.63;;;2.13;;
14592;SDS011;7383;52.354;9.756;2023-08-08T09:02:15;1.88;;;1.70;;
14592;SDS011;7383;52.354;9.756;2023-08-08T09:04:42;2.50;;;1.92;;
14592;SDS011;7383;52.354;9.756;2023-08-08T09:07:09;1.60;;;1.50;;
14592;SDS011;7383;52.354;9.756;2023-08-08T09:09:37;2.35;;;1.65;;
14592;SDS011;7383;52.354;9.756;2023-08-08T09:12:04;1.50;;;1.40;;
14592;SDS011;7383;52.354;9.756;2023-08-08T09:14:31;1.50;;;1.40;;
14592;SDS011;7383;52.354;9.756;2023-08-08T09:16:58;1.90;;;1.80;;
14592;SDS011;7383;52.354;9.756;2023-08-08T09:19:24;2.08;;;1.88;;
14592;SDS011;7383;52.354;9.756;2023-08-08T09:21:51;1.80;;;1.70;;
14592;SDS011;7383;52.354;9.756;2023-08-08T09:24:18;3.08;;;1.90;;
14592;SDS011;7383;52.354;9.756;2023-08-08T09:26:47;2.72;;;1.92;;
14592;SDS011;7383;52.354;9.756;2023-08-08T09:29:14;2.15;;;1.85;;
14592;SDS011;7383;52.354;9.756;2023-08-08T09:31:41;2.38;;;1.80;;
14592;SDS011;7383;52.354;9.756;2023-08-08T09:34:07;1.92;;;1.70;;
14592;SDS011;7383;52.354;9.756;2023-08-08T09:36:34;1.83;;;1.60;;
14592;SDS011;7383;52.354;9.756;2023-08-08T09:39:01;2.40;;;2.20;;
14592;SDS011;7383;52.354;9.756;2023-08-08T09:41:29;2.60;;;2.00;;
14592;SDS011;7383;52.354;9.756;2023-08-08T09:43:58;2.72;;;2.10;;
14592;SDS011;7383;52.354;9.756;2023-08-08T09:46:25;2.20;;;1.98;;
14592;SDS011;7383;52.354;9.756;2023-08-08T09:48:52;2.00;;;1.80;;
14592;SDS011;7383;52.354;9.756;2023-08-08T09:51:20;2.20;;;2.00;;
14592;SDS011;7383;52.354;9.756;2023-08-08T09:53:48;2.85;;;1.73;;
14592;SDS011;7383;52.354;9.756;2023-08-08T09:56:15;1.73;;;1.63;;
14592;SDS011;7383;52.354;9.756;2023-08-08T09:58:41;1.85;;;1.60;;
14592;SDS011;7383;52.354;9.756;2023-08-08T10:01:10;1.95;;;1.77;;
14592;SDS011;7383;52.354;9.756;2023-08-08T10:03:37;1.90;;;1.80;;
14592;SDS011;7383;52.354;9.756;2023-08-08T10:06:04;1.70;;;1.60;;
14592;SDS011;7383;52.354;9.756;2023-08-08T10:08:31;2.60;;;2.05;;
14592;SDS011;7383;52.354;9.756;2023-08-08T10:10:58;2.10;;;2.00;;
14592;SDS011;7383;52.354;9.756;2023-08-08T10:13:26;2.15;;;2.05;;
14592;SDS011;7383;52.354;9.756;2023-08-08T10:15:53;2.33;;;2.13;;
14592;SDS011;7383;52.354;9.756;2023-08-08T10:18:22;2.65;;;1.70;;
14592;SDS011;7383;52.354;9.756;2023-08-08T10:20:50;3.58;;;1.90;;
14592;SDS011;7383;52.354;9.756;2023-08-08T10:23:18;2.22;;;1.80;;
14592;SDS011;7383;52.354;9.756;2023-08-08T10:25:46;1.80;;;1.70;;
14592;SDS011;7383;52.354;9.756;2023-08-08T10:28:15;2.03;;;1.73;;
14592;SDS011;7383;52.354;9.756;2023-08-08T10:30:44;1.63;;;1.52;;
14592;SDS011;7383;52.354;9.756;2023-08-08T10:33:18;2.08;;;1.90;;
14592;SDS011;7383;52.354;9.756;2023-08-08T10:36:08;2.42;;;1.70;;
14592;SDS011;7383;52.354;9.756;2023-08-08T10:38:39;1.80;;;1.70;;
14592;SDS011;7383;52.354;9.756;2023-08-08T10:41:08;1.70;;;1.60;;
14592;SDS011;7383;52.354;9.756;2023-08-08T10:43:36;1.77;;;1.50;;
14592;SDS011;7383;52.354;9.756;2023-08-08T10:46:03;1.52;;;1.27;;
14592;SDS011;7383;52.354;9.756;2023-08-08T10:48:30;2.92;;;1.60;;
14592;SDS011;7383;52.354;9.756;2023-08-08T10:50:58;1.52;;;1.40;;
14592;SDS011;7383;52.354;9.756;2023-08-08T10:53:25;1.60;;;1.50;;
14592;SDS011;7383;52.354;9.756;2023-08-08T10:55:58;3.20;;;1.50;;
14592;SDS011;7383;52.354;9.756;2023-08-08T10:58:35;1.55;;;1.38;;
14592;SDS011;7383;52.354;9.756;2023-08-08T11:01:03;1.95;;;1.48;;
14592;SDS011;7383;52.354;9.756;2023-08-08T11:03:33;1.50;;;1.40;;
14592;SDS011;7383;52.354;9.756;2023-08-08T11:06:02;1.55;;;1.20;;
14592;SDS011;7383;52.354;9.756;2023-08-08T11:08:29;1.40;;;1.30;;
14592;SDS011;7383;52.354;9.756;2023-08-08T11:10:57;2.05;;;1.60;;
14592;SDS011;7383;52.354;9.756;2023-08-08T11:13:23;1.92;;;1.58;;
14592;SDS011;7383;52.354;9.756;2023-08-08T11:15:50;1.45;;;1.30;;
14592;SDS011;7383;52.354;9.756;2023-08-08T11:18:16;2.17;;;1.30;;
14592;SDS011;7383;52.354;9.756;2023-08-08T11:20:43;1.45;;;1.10;;
14592;SDS011;7383;52.354;9.756;2023-08-08T11:23:12;1.38;;;1.27;;
14592;SDS011;7383;52.354;9.756;2023-08-08T11:25:39;1.50;;;1.00;;
14592;SDS011;7383;52.354;9.756;2023-08-08T11:28:07;1.58;;;1.10;;
14592;SDS011;7383;52.354;9.756;2023-08-08T11:30:36;1.33;;;1.20;;
14592;SDS011;7383;52.354;9.756;2023-08-08T11:33:04;1.60;;;1.42;;
14592;SDS011;7383;52.354;9.756;2023-08-08T11:35:32;1.15;;;1.00;;
14592;SDS011;7383;52.354;9.756;2023-08-08T11:37:59;1.77;;;1.05;;
14592;SDS011;7383;52.354;9.756;2023-08-08T11:40:29;1.27;;;1.17;;
14592;SDS011;7383;52.354;9.756;2023-08-08T11:42:57;2.17;;;1.40;;
14592;SDS011;7383;52.354;9.756;2023-08-08T11:45:25;1.02;;;1.00;;
14592;SDS011;7383;52.354;9.756;2023-08-08T11:47:53;1.42;;;1.13;;
14592;SDS011;7383;52.354;9.756;2023-08-08T11:50:21;1.70;;;1.60;;
14592;SDS011;7383;52.354;9.756;2023-08-08T11:52:50;2.35;;;2.15;;
14592;SDS011;7383;52.354;9.756;2023-08-08T11:55:18;2.15;;;1.70;;
14592;SDS011;7383;52.354;9.756;2023-08-08T11:57:51;2.00;;;1.80;;
14592;SDS011;7383;52.354;9.756;2023-08-08T12:00:21;1.90;;;1.80;;
14592;SDS011;7383;52.354;9.756;2023-08-08T12:02:54;2.45;;;2.25;;
14592;SDS011;7383;52.354;9.756;2023-08-08T12:05:21;2.03;;;1.73;;
14592;SDS011;7383;52.354;9.756;2023-08-08T12:07:48;1.75;;;1.20;;
14592;SDS011;7383;52.354;9.756;2023-08-08T12:10:15;1.30;;;1.20;;
14592;SDS011;7383;52.354;9.756;2023-08-08T12:12:46;1.63;;;1.48;;
14592;SDS011;7383;52.354;9.756;2023-08-08T12:15:19;1.52;;;1.42;;
14592;SDS011;7383;52.354;9.756;2023-08-08T12:17:46;2.78;;;1.88;;
14592;SDS011;7383;52.354;9.756;2023-08-08T12:20:14;2.97;;;2.25;;
14592;SDS011;7383;52.354;9.756;2023-08-08T12:22:41;1.90;;;1.48;;
14592;SDS011;7383;52.354;9.756;2023-08-08T12:25:08;1.67;;;1.55;;
14592;SDS011;7383;52.354;9.756;2023-08-08T12:27:34;2.20;;;1.50;;
14592;SDS011;7383;52.354;9.756;2023-08-08T12:30:03;1.45;;;1.35;;
14592;SDS011;7383;52.354;9.756;2023-08-08T12:32:30;2.22;;;1.80;;
14592;SDS011;7383;52.354;9.756;2023-08-08T12:34:57;4.13;;;1.70;;
14592;SDS011;7383;52.354;9.756;2023-08-08T12:37:23;1.60;;;1.50;;
14592;SDS011;7383;52.354;9.756;2023-08-08T12:39:50;1.40;;;1.30;;
14592;SDS011;7383;52.354;9.756;2023-08-08T12:42:17;1.40;;;1.30;;
14592;SDS011;7383;52.354;9.756;2023-08-08T12:44:46;2.03;;;1.45;;
14592;SDS011;7383;52.354;9.756;2023-08-08T12:47:17;1.50;;;1.02;;
14592;SDS011;7383;52.354;9.756;2023-08-08T12:49:44;1.40;;;1.30;;
14592;SDS011;7383;52.354;9.756;2023-08-08T12:52:10;1.45;;;1.15;;
14592;SDS011;7383;52.354;9.756;2023-08-08T12:54:37;0.90;;;0.90;;
14592;SDS011;7383;52.354;9.756;2023-08-08T12:57:03;1.05;;;1.00;;
14592;SDS011;7383;52.354;9.756;2023-08-08T12:59:30;1.55;;;1.27;;
14592;SDS011;7383;52.354;9.756;2023-08-08T13:02:06;1.45;;;1.33;;
14592;SDS011;7383;52.354;9.756;2023-08-08T13:04:36;1.10;;;1.00;;
14592;SDS011;7383;52.354;9.756;2023-08-08T13:07:02;1.80;;;1.20;;
14592;SDS011;7383;52.354;9.756;2023-08-08T13:09:32;4.65;;;1.60;;
14592;SDS011;7383;52.354;9.756;2023-08-08T13:11:59;1.45;;;1.20;;
14592;SDS011;7383;52.354;9.756;2023-08-08T13:14:25;1.23;;;0.90;;
14592;SDS011;7383;52.354;9.756;2023-08-08T13:16:52;0.98;;;0.80;;
14592;SDS011;7383;52.354;9.756;2023-08-08T13:19:19;0.75;;;0.75;;
14592;SDS011;7383;52.354;9.756;2023-08-08T13:21:51;1.02;;;1.02;;
14592;SDS011;7383;52.354;9.756;2023-08-08T13:24:17;0.55;;;0.55;;
14592;SDS011;7383;52.354;9.756;2023-08-08T13:26:45;2.15;;;1.00;;
14592;SDS011;7383;52.354;9.756;2023-08-08T13:29:12;1.65;;;0.90;;
14592;SDS011;7383;52.354;9.756;2023-08-08T13:31:38;1.58;;;1.02;;
14592;SDS011;7383;52.354;9.756;2023-08-08T13:34:05;1.30;;;1.20;;
14592;SDS011;7383;52.354;9.756;2023-08-08T13:36:32;1.23;;;1.13;;
14592;SDS011;7383;52.354;9.756;2023-08-08T13:38:59;1.42;;;1.17;;
14592;SDS011;7383;52.354;9.756;2023-08-08T13:41:26;1.40;;;1.00;;
14592;SDS011;7383;52.354;9.756;2023-08-08T13:43:53;1.10;;;1.00;;
14592;SDS011;7383;52.354;9.756;2023-08-08T13:46:19;0.80;;;0.80;;
14592;SDS011;7383;52.354;9.756;2023-08-08T13:48:46;0.95;;;0.95;;
14592;SDS011;7383;52.354;9.756;2023-08-08T13:51:12;0.68;;;0.68;;
14592;SDS011;7383;52.354;9.756;2023-08-08T13:53:39;0.80;;;0.80;;
14592;SDS011;7383;52.354;9.756;2023-08-08T13:56:06;1.13;;;0.77;;
14592;SDS011;7383;52.354;9.756;2023-08-08T13:58:33;0.90;;;0.82;;
14592;SDS011;7383;52.354;9.756;2023-08-08T14:01:02;1.20;;;0.77;;
14592;SDS011;7383;52.354;9.756;2023-08-08T14:03:28;0.75;;;0.70;;
14592;SDS011;7383;52.354;9.756;2023-08-08T14:05:55;1.00;;;1.00;;
14592;SDS011;7383;52.354;9.756;2023-08-08T14:08:22;1.25;;;1.10;;
14592;SDS011;7383;52.354;9.756;2023-08-08T14:10:49;1.63;;;1.13;;
14592;SDS011;7383;52.354;9.756;2023-08-08T14:13:17;0.88;;;0.88;;
14592;SDS011;7383;52.354;9.756;2023-08-08T14:15:44;1.08;;;0.95;;
14592;SDS011;7383;52.354;9.756;2023-08-08T14:18:11;0.93;;;0.80;;
14592;SDS011;7383;52.354;9.756;2023-08-08T14:20:38;1.00;;;0.90;;
14592;SDS011;7383;52.354;9.756;2023-08-08T14:23:05;0.88;;;0.88;;
14592;SDS011;7383;52.354;9.756;2023-08-08T14:25:31;0.88;;;0.73;;
14592;SDS011;7383;52.354;9.756;2023-08-08T14:27:58;1.20;;;1.10;;
14592;SDS011;7383;52.354;9.756;2023-08-08T14:30:26;1.35;;;0.82;;
14592;SDS011;7383;52.354;9.756;2023-08-08T14:32:53;1.13;;;0.80;;
14592;SDS011;7383;52.354;9.756;2023-08-08T14:35:20;1.70;;;0.95;;
14592;SDS011;7383;52.354;9.756;2023-08-08T14:37:48;0.77;;;0.77;;
14592;SDS011;7383;52.354;9.756;2023-08-08T14:40:15;1.23;;;0.70;;
14592;SDS011;7383;52.354;9.756;2023-08-08T14:42:42;1.00;;;0.68;;
14592;SDS011;7383;52.354;9.756;2023-08-08T14:45:09;0.88;;;0.80;;
14592;SDS011;7383;52.354;9.756;2023-08-08T14:47:37;0.82;;;0.82;;
14592;SDS011;7383;52.354;9.756;2023-08-08T14:50:04;0.98;;;0.80;;
14592;SDS011;7383;52.354;9.756;2023-08-08T14:52:33;1.25;;;0.80;;
14592;SDS011;7383;52.354;9.756;2023-08-08T14:54:59;0.65;;;0.65;;
14592;SDS011;7383;52.354;9.756;2023-08-08T14:57:27;0.60;;;0.60;;
14592;SDS011;7383;52.354;9.756;2023-08-08T14:59:53;0.52;;;0.52;;